Time;durP1;ratioP1;P1;durP2;ratioP2;P2;SDS_P1;SDS_P2;PMS_P1;PMS_P2;Temp;Humidity;BMP_temperature;BMP_pressure;BME280_temperature;BME280_humidity;BME280_pressure;Samples;Min_cycle;Max_cycle;Signal;HPM_P1;HPM_P2
2023/09/27 00:01:06;;;;;;;12.63;4.63;;;;;;;19.41;52.06;97874.84;5051642;28;20297;-70
2023/09/27 00:03:31;;;;;;;4.67;4.23;;;;;;;19.32;52.71;97876.81;5044236;28;20262;-71
2023/09/27 00:05:57;;;;;;;4.73;4.27;;;;;;;19.15;54.34;97878.91;5053728;28;20274;-70
2023/09/27 00:08:22;;;;;;;4.53;4.10;;;;;;;19.16;54.48;97876.06;5050157;28;20183;-70
2023/09/27 00:10:47;;;;;;;5.13;4.63;;;;;;;19.30;54.50;97876.19;5036947;28;20611;-70
2023/09/27 00:13:13;;;;;;;7.83;4.50;;;;;;;19.38;54.17;97876.06;5041828;28;20199;-70
2023/09/27 00:15:40;;;;;;;5.37;4.47;;;;;;;19.46;54.23;97875.09;5042857;28;20191;-70
2023/09/27 00:18:06;;;;;;;5.00;4.50;;;;;;;19.53;53.66;97880.47;5048876;28;20865;-69
2023/09/27 00:20:32;;;;;;;8.20;4.43;;;;;;;19.45;52.98;97884.09;5052811;28;20552;-70
2023/09/27 00:22:57;;;;;;;5.40;4.13;;;;;;;19.34;52.87;97883.56;5048709;28;20182;-71
2023/09/27 00:25:23;;;;;;;5.17;4.10;;;;;;;19.25;53.30;97884.72;5050360;28;20448;-70
2023/09/27 00:27:48;;;;;;;4.23;3.77;;;;;;;19.26;53.36;97889.03;5048101;28;20215;-70
2023/09/27 00:30:14;;;;;;;4.83;4.23;;;;;;;19.30;53.65;97890.31;5048330;28;20226;-70
2023/09/27 00:32:40;;;;;;;5.30;4.33;;;;;;;19.30;53.16;97886.81;5047747;28;20269;-70
2023/09/27 00:35:06;;;;;;;6.03;4.10;;;;;;;19.21;53.10;97882.66;5048398;28;20694;-70
2023/09/27 00:37:32;;;;;;;5.80;4.70;;;;;;;19.21;53.47;97883.47;5056916;28;20500;-71
2023/09/27 00:39:57;;;;;;;6.03;4.03;;;;;;;19.25;53.44;97882.06;5049035;28;20191;-71
2023/09/27 00:42:23;;;;;;;5.80;4.30;;;;;;;19.35;53.49;97884.41;5048382;28;20871;-71
2023/09/27 00:44:49;;;;;;;4.87;4.37;;;;;;;19.38;53.15;97877.88;5048213;28;20228;-70
2023/09/27 00:47:14;;;;;;;5.57;4.10;;;;;;;19.36;53.36;97875.41;5048712;28;20429;-70
2023/09/27 00:49:40;;;;;;;6.60;4.20;;;;;;;19.36;53.27;97875.41;5048653;28;20281;-71
2023/09/27 00:52:06;;;;;;;5.17;4.20;;;;;;;19.33;52.77;97871.31;5058828;28;20210;-70
2023/09/27 00:54:33;;;;;;;8.77;3.80;;;;;;;19.28;53.19;97865.75;5050096;28;20175;-70
2023/09/27 00:56:59;;;;;;;4.07;3.73;;;;;;;19.27;52.76;97865.94;5054789;28;20205;-71
2023/09/27 00:59:25;;;;;;;5.00;4.20;;;;;;;19.22;52.87;97869.16;5048251;28;20434;-70
2023/09/27 01:01:51;;;;;;;4.33;3.90;;;;;;;19.13;53.10;97865.84;5054230;28;20478;-73
2023/09/27 01:04:17;;;;;;;4.40;4.00;;;;;;;19.17;53.08;97872.41;5060397;28;20789;-70
2023/09/27 01:06:43;;;;;;;4.20;3.80;;;;;;;19.21;53.16;97864.03;5057159;28;20488;-70
2023/09/27 01:09:09;;;;;;;5.70;3.90;;;;;;;19.22;52.63;97873.66;5049038;28;20179;-70
2023/09/27 01:11:35;;;;;;;4.00;3.63;;;;;;;19.19;52.42;97866.91;5055944;28;20495;-70
2023/09/27 01:14:00;;;;;;;5.10;3.87;;;;;;;19.15;52.59;97868.28;5047543;28;20191;-69
2023/09/27 01:16:26;;;;;;;4.03;3.67;;;;;;;19.13;52.77;97870.31;5048002;28;20209;-69
2023/09/27 01:18:51;;;;;;;4.33;3.87;;;;;;;19.16;52.74;97865.44;5040671;28;20267;-69
2023/09/27 01:21:19;;;;;;;4.87;4.07;;;;;;;19.13;52.56;97876.47;5046454;28;20210;-71
2023/09/27 01:23:46;;;;;;;4.30;3.90;;;;;;;19.09;52.87;97880.50;5056275;28;20741;-70
2023/09/27 01:26:12;;;;;;;4.27;3.87;;;;;;;19.00;52.96;97881.66;5045098;28;20583;-71
2023/09/27 01:28:40;;;;;;;10.47;4.27;;;;;;;18.99;53.31;97878.16;5050450;28;20513;-70
2023/09/27 01:31:07;;;;;;;5.47;3.90;;;;;;;19.02;53.42;97879.63;5047272;28;20225;-71
2023/09/27 01:33:33;;;;;;;6.50;4.80;;;;;;;19.03;53.51;97875.94;5030130;28;20437;-70
2023/09/27 01:35:59;;;;;;;9.40;4.03;;;;;;;19.03;52.96;97876.78;5070831;28;20777;-70
2023/09/27 01:38:25;;;;;;;5.83;3.93;;;;;;;19.00;53.36;97874.50;5055234;28;20206;-70
2023/09/27 01:40:50;;;;;;;4.30;3.90;;;;;;;19.00;53.45;97871.03;5052877;28;21028;-72
2023/09/27 01:43:16;;;;;;;5.10;4.33;;;;;;;19.03;53.46;97883.91;5059943;28;20907;-70
2023/09/27 01:45:42;;;;;;;7.13;3.80;;;;;;;19.07;53.14;97889.69;5047486;28;20210;-70
2023/09/27 01:48:08;;;;;;;4.93;3.87;;;;;;;19.07;52.83;97877.22;5042465;28;20202;-71
2023/09/27 01:50:34;;;;;;;4.60;4.20;;;;;;;19.06;52.40;97883.53;5047564;28;20540;-70
2023/09/27 01:53:00;;;;;;;4.10;3.80;;;;;;;19.03;52.23;97887.41;5048026;28;20228;-70
2023/09/27 01:55:25;;;;;;;4.40;4.00;;;;;;;18.98;52.27;97883.69;5051376;28;20457;-71
2023/09/27 01:57:52;;;;;;;4.00;3.33;;;;;;;18.87;52.06;97888.44;5054271;28;20680;-72
2023/09/27 02:00:18;;;;;;;7.40;4.07;;;;;;;18.82;52.64;97882.88;5050181;28;20229;-71
2023/09/27 02:02:48;;;;;;;4.30;3.90;;;;;;;18.80;53.25;97887.53;5055612;28;20430;-70
2023/09/27 02:05:14;;;;;;;4.67;3.83;;;;;;;18.79;53.38;97882.44;5049822;28;20433;-70
2023/09/27 02:07:40;;;;;;;5.93;4.00;;;;;;;18.82;53.67;97885.53;5058477;28;20437;-71
2023/09/27 02:10:06;;;;;;;4.47;3.80;;;;;;;18.83;53.67;97889.03;5047539;28;20203;-71
2023/09/27 02:12:32;;;;;;;3.80;3.23;;;;;;;18.86;53.35;97896.59;5048873;28;20214;-71
2023/09/27 02:14:57;;;;;;;4.00;3.57;;;;;;;18.91;53.40;97893.38;5047435;28;20438;-70
2023/09/27 02:17:23;;;;;;;3.60;3.30;;;;;;;18.93;52.59;97896.66;5040915;28;20194;-71
2023/09/27 02:19:48;;;;;;;4.93;3.30;;;;;;;18.97;52.82;97895.31;5055419;28;20233;-71
2023/09/27 02:22:14;;;;;;;4.00;3.63;;;;;;;18.98;52.30;97897.75;5050121;28;20234;-70
2023/09/27 02:24:41;;;;;;;4.50;3.80;;;;;;;18.96;52.13;97896.31;5046608;28;20236;-71
2023/09/27 02:27:06;;;;;;;4.20;3.90;;;;;;;18.89;52.23;97890.91;5046152;28;20213;-71
2023/09/27 02:29:32;;;;;;;6.40;4.47;;;;;;;18.81;52.01;97891.84;5051772;28;20437;-71
2023/09/27 02:31:58;;;;;;;3.93;3.53;;;;;;;18.71;52.49;97897.44;5060599;28;20206;-71
2023/09/27 02:34:23;;;;;;;4.00;3.53;;;;;;;18.67;52.74;97888.25;5046997;28;20418;-71
2023/09/27 02:36:49;;;;;;;4.63;3.60;;;;;;;18.64;52.62;97888.59;5055441;28;20230;-71
2023/09/27 02:39:14;;;;;;;4.00;3.70;;;;;;;18.65;52.87;97892.09;5047495;28;20222;-71
2023/09/27 02:41:40;;;;;;;3.80;3.50;;;;;;;18.66;53.14;97891.91;5056656;28;20267;-72
2023/09/27 02:44:05;;;;;;;6.70;3.73;;;;;;;18.69;52.64;97886.22;5046222;28;20278;-71
2023/09/27 02:46:31;;;;;;;4.17;3.77;;;;;;;18.64;52.69;97874.53;5050657;28;20273;-70
2023/09/27 02:48:56;;;;;;;3.60;3.30;;;;;;;18.66;52.52;97880.44;5055234;28;20608;-70
2023/09/27 02:51:22;;;;;;;5.00;3.50;;;;;;;18.65;52.80;97876.16;5050488;28;20236;-72
2023/09/27 02:53:47;;;;;;;4.90;3.90;;;;;;;18.68;52.60;97873.13;5047008;28;20607;-71
2023/09/27 02:56:13;;;;;;;5.30;3.40;;;;;;;18.67;52.60;97876.78;5049680;28;20191;-71
2023/09/27 02:58:39;;;;;;;3.70;3.30;;;;;;;18.64;52.60;97882.50;5051009;28;20194;-70
2023/09/27 03:01:05;;;;;;;6.50;4.03;;;;;;;18.59;52.61;97883.03;5049743;28;20477;-70
2023/09/27 03:03:31;;;;;;;7.03;4.50;;;;;;;18.50;52.96;97876.19;5058253;28;20529;-72
2023/09/27 03:05:58;;;;;;;9.70;3.63;;;;;;;18.47;53.20;97865.94;5050382;28;20183;-70
2023/09/27 03:08:24;;;;;;;4.50;3.60;;;;;;;18.49;53.19;97859.47;5052311;28;20271;-69
2023/09/27 03:10:49;;;;;;;4.70;3.97;;;;;;;18.56;53.31;97859.53;5061272;28;20464;-69
2023/09/27 03:13:15;;;;;;;4.70;3.87;;;;;;;18.60;53.08;97865.28;5049999;28;20513;-69
2023/09/27 03:15:41;;;;;;;10.60;3.60;;;;;;;18.61;52.93;97864.28;5048889;28;20669;-70
2023/09/27 03:18:06;;;;;;;4.00;3.60;;;;;;;18.61;52.49;97874.91;5047480;28;20512;-70
2023/09/27 03:20:32;;;;;;;4.13;3.83;;;;;;;18.52;52.98;97872.38;5049064;28;20577;-70
2023/09/27 03:22:58;;;;;;;5.47;4.00;;;;;;;18.46;53.02;97870.44;5050384;28;20663;-70
2023/09/27 03:25:24;;;;;;;4.50;3.50;;;;;;;18.47;53.12;97871.25;5049526;28;20198;-70
2023/09/27 03:27:49;;;;;;;3.93;3.57;;;;;;;18.40;53.09;97871.16;5059113;28;20194;-71
2023/09/27 03:30:15;;;;;;;4.80;3.90;;;;;;;18.34;52.97;97874.59;5051566;28;20238;-70
2023/09/27 03:32:40;;;;;;;14.93;5.33;;;;;;;18.32;53.65;97874.78;5048690;28;20203;-70
2023/09/27 03:35:08;;;;;;;4.77;4.23;;;;;;;18.35;53.78;97876.22;5049285;28;20496;-70
2023/09/27 03:37:34;;;;;;;8.37;4.07;;;;;;;18.33;53.57;97870.28;5049944;28;20285;-70
2023/09/27 03:40:01;;;;;;;5.57;4.27;;;;;;;18.31;53.78;97867.81;5050980;28;20436;-71
2023/09/27 03:42:26;;;;;;;5.07;4.30;;;;;;;18.34;54.03;97869.28;5058730;28;20418;-70
2023/09/27 03:44:54;;;;;;;4.80;4.17;;;;;;;18.39;53.94;97870.38;5050047;28;21008;-71
2023/09/27 03:47:20;;;;;;;4.50;4.10;;;;;;;18.44;53.37;97861.84;5049041;28;20820;-69
2023/09/27 03:49:45;;;;;;;7.27;3.83;;;;;;;18.47;53.11;97865.94;5047335;28;20529;-69
2023/09/27 03:52:11;;;;;;;4.20;3.80;;;;;;;18.49;53.14;97874.53;5054119;28;20218;-69
2023/09/27 03:54:36;;;;;;;5.67;4.17;;;;;;;18.52;52.85;97875.03;5033649;28;20840;-69
2023/09/27 03:57:02;;;;;;;5.67;4.33;;;;;;;18.55;52.86;97887.09;5035021;28;20203;-69
2023/09/27 03:59:27;;;;;;;6.27;4.20;;;;;;;18.55;52.77;97890.53;5050628;28;20198;-69
2023/09/27 04:01:53;;;;;;;4.97;4.47;;;;;;;18.54;52.44;97888.91;5054308;28;20293;-70
2023/09/27 04:04:18;;;;;;;4.83;4.20;;;;;;;18.46;52.50;97889.00;5046915;28;20183;-70
2023/09/27 04:06:44;;;;;;;5.93;4.63;;;;;;;18.37;52.78;97887.50;5053173;28;20220;-70
2023/09/27 04:09:10;;;;;;;3.93;3.63;;;;;;;18.27;53.33;97885.91;5050651;28;20179;-70
2023/09/27 04:11:36;;;;;;;7.50;4.03;;;;;;;18.21;53.40;97883.22;5049774;28;20203;-70
2023/09/27 04:14:04;;;;;;;5.20;4.20;;;;;;;18.23;53.75;97886.47;5046801;28;20187;-70
2023/09/27 04:16:30;;;;;;;5.47;4.37;;;;;;;18.27;53.51;97885.91;5046884;28;20536;-71
2023/09/27 04:18:59;;;;;;;4.40;4.03;;;;;;;18.24;53.09;97875.69;5046886;28;21129;-70
2023/09/27 04:21:25;;;;;;;6.47;4.40;;;;;;;18.25;53.31;97885.31;5047625;28;20449;-70
2023/09/27 04:23:55;;;;;;;4.77;4.30;;;;;;;18.25;53.20;97889.78;5048508;28;20444;-70
2023/09/27 04:26:21;;;;;;;4.70;4.30;;;;;;;18.26;53.03;97888.78;5048438;28;20509;-70
2023/09/27 04:28:46;;;;;;;7.00;4.53;;;;;;;18.23;53.19;97895.28;5053077;28;20513;-71
2023/09/27 04:31:12;;;;;;;8.30;4.50;;;;;;;18.17;53.36;97893.34;5047885;28;20550;-70
2023/09/27 04:33:41;;;;;;;5.73;4.60;;;;;;;18.14;53.49;97898.19;5049558;28;20183;-70
2023/09/27 04:36:06;;;;;;;5.53;4.60;;;;;;;18.10;53.76;97889.78;5048174;28;20187;-71
2023/09/27 04:38:31;;;;;;;5.10;4.27;;;;;;;18.10;53.94;97893.25;5046025;28;20540;-70
2023/09/27 04:40:57;;;;;;;5.30;4.43;;;;;;;18.12;53.83;97890.44;5041616;28;20660;-70
2023/09/27 04:43:23;;;;;;;9.40;4.60;;;;;;;18.10;53.95;97897.75;5057780;28;20186;-70
2023/09/27 04:45:49;;;;;;;5.97;4.07;;;;;;;18.04;53.86;97903.78;5060795;28;20190;-69
2023/09/27 04:48:14;;;;;;;5.73;4.50;;;;;;;18.01;53.85;97906.81;5047736;28;20578;-70
2023/09/27 04:50:40;;;;;;;6.87;5.00;;;;;;;17.99;53.62;97911.47;5050569;28;20793;-70
2023/09/27 04:53:05;;;;;;;6.00;4.90;;;;;;;17.93;53.45;97913.81;5046962;28;20240;-70
2023/09/27 04:55:31;;;;;;;10.50;4.90;;;;;;;17.88;53.43;97918.00;5051359;28;20257;-71
2023/09/27 04:57:56;;;;;;;7.27;5.50;;;;;;;17.72;53.69;97921.66;5042029;28;20225;-72
2023/09/27 05:00:22;;;;;;;5.30;4.30;;;;;;;17.75;54.10;97919.47;5055423;28;20293;-72
2023/09/27 05:02:48;;;;;;;6.93;4.77;;;;;;;17.80;54.20;97919.75;5048622;28;20586;-71
2023/09/27 05:05:13;;;;;;;5.23;4.73;;;;;;;17.78;53.81;97916.47;5046604;28;20265;-71
2023/09/27 05:07:40;;;;;;;11.60;4.63;;;;;;;17.74;53.65;97912.50;5038510;28;20508;-71
2023/09/27 05:10:06;;;;;;;6.60;4.90;;;;;;;17.73;53.66;97912.72;5054697;28;20185;-70
2023/09/27 05:12:32;;;;;;;11.30;4.27;;;;;;;17.74;53.94;97922.31;5047792;28;20485;-70
2023/09/27 05:14:58;;;;;;;6.70;4.17;;;;;;;17.79;53.90;97922.56;5054492;28;20497;-69
2023/09/27 05:17:24;;;;;;;4.87;4.47;;;;;;;17.86;53.79;97920.84;5044902;28;20662;-72
2023/09/27 05:19:50;;;;;;;10.10;5.70;;;;;;;17.87;53.19;97932.28;5053972;28;20445;-72
2023/09/27 05:22:19;;;;;;;5.30;4.70;;;;;;;17.84;53.21;97940.59;5045498;28;20194;-71
2023/09/27 05:24:47;;;;;;;6.93;4.97;;;;;;;17.84;53.44;97929.97;5042813;28;20264;-71
2023/09/27 05:27:13;;;;;;;7.47;5.10;;;;;;;17.88;53.31;97942.72;5031262;28;20431;-72
2023/09/27 05:29:39;;;;;;;12.30;5.13;;;;;;;17.92;53.31;97941.31;5044119;28;20430;-71
2023/09/27 05:32:04;;;;;;;7.50;4.43;;;;;;;17.96;53.16;97941.78;5048665;28;20457;-72
2023/09/27 05:34:30;;;;;;;6.17;5.03;;;;;;;18.01;52.93;97941.28;5042224;28;20250;-71
2023/09/27 05:36:57;;;;;;;7.00;5.40;;;;;;;18.03;53.08;97940.09;5044233;28;20206;-70
2023/09/27 05:39:23;;;;;;;5.20;4.67;;;;;;;18.06;52.72;97938.91;5032437;28;20434;-71
2023/09/27 05:41:48;;;;;;;5.23;4.73;;;;;;;18.01;52.86;97936.00;5042539;28;21177;-71
2023/09/27 05:44:14;;;;;;;7.20;5.70;;;;;;;18.02;52.55;97945.59;5035857;28;20465;-72
2023/09/27 05:46:43;;;;;;;12.03;5.50;;;;;;;18.21;52.82;97953.00;5038932;28;20226;-71
2023/09/27 05:49:11;;;;;;;5.77;5.27;;;;;;;18.49;51.96;97952.34;5041918;28;20282;-71
2023/09/27 05:51:36;;;;;;;5.97;5.33;;;;;;;18.67;51.52;97948.47;5038819;28;20923;-70
2023/09/27 05:54:02;;;;;;;7.43;5.50;;;;;;;18.71;51.23;97955.84;5040844;28;20433;-72
2023/09/27 05:56:28;;;;;;;7.07;5.90;;;;;;;18.64;51.29;97956.81;5042796;28;20837;-70
2023/09/27 05:58:54;;;;;;;6.60;5.33;;;;;;;18.56;51.43;97949.78;5043944;28;20266;-69
2023/09/27 06:01:19;;;;;;;6.00;5.40;;;;;;;18.44;51.37;97956.56;5053611;28;20214;-71
2023/09/27 06:03:46;;;;;;;6.30;5.70;;;;;;;18.53;52.11;97947.47;5048360;28;20194;-70
2023/09/27 06:06:12;;;;;;;10.53;6.77;;;;;;;18.61;52.21;97949.22;5036272;28;20184;-70
2023/09/27 06:08:38;;;;;;;10.40;6.00;;;;;;;18.66;52.45;97952.97;5049922;28;20937;-69
2023/09/27 06:11:03;;;;;;;7.80;5.80;;;;;;;18.68;52.68;97956.25;5044051;28;20465;-71
2023/09/27 06:13:29;;;;;;;14.10;6.23;;;;;;;18.70;52.98;97956.91;5038973;28;20190;-72
2023/09/27 06:15:54;;;;;;;10.30;6.77;;;;;;;18.75;53.07;97956.34;5043917;28;20194;-71
2023/09/27 06:18:21;;;;;;;8.70;6.77;;;;;;;18.84;53.02;97962.34;5037423;28;20187;-71
2023/09/27 06:20:47;;;;;;;9.03;5.70;;;;;;;18.91;53.00;97962.41;5043393;28;20208;-71
2023/09/27 06:23:13;;;;;;;8.70;5.60;;;;;;;19.00;53.45;97964.81;5042269;28;20934;-72
2023/09/27 06:25:43;;;;;;;9.50;6.10;;;;;;;19.07;54.02;97964.88;5042923;28;20475;-72
2023/09/27 06:28:11;;;;;;;8.80;5.97;;;;;;;19.10;54.05;97967.16;5032078;28;20188;-71
2023/09/27 06:30:37;;;;;;;12.90;5.10;;;;;;;19.23;53.72;97968.31;5048733;28;20875;-71
2023/09/27 06:33:03;;;;;;;10.17;6.27;;;;;;;19.31;53.83;97974.31;5041574;28;20508;-70
2023/09/27 06:35:31;;;;;;;10.00;6.50;;;;;;;19.34;53.28;97978.44;5059974;28;20210;-70
2023/09/27 06:38:00;;;;;;;16.63;6.37;;;;;;;19.39;53.93;97970.72;5038154;28;20430;-71
2023/09/27 06:40:26;;;;;;;10.23;6.43;;;;;;;19.33;54.08;97979.44;5050091;28;20553;-71
2023/09/27 06:42:52;;;;;;;6.93;5.97;;;;;;;19.37;53.98;97978.06;5045777;28;20415;-71
2023/09/27 06:45:18;;;;;;;8.70;5.83;;;;;;;19.37;53.83;97978.06;5037777;28;20269;-70
2023/09/27 06:47:47;;;;;;;8.17;6.23;;;;;;;19.40;53.81;97985.66;5041431;28;20236;-71
2023/09/27 06:50:13;;;;;;;9.90;6.67;;;;;;;19.31;53.71;97984.94;5036708;28;20461;-71
2023/09/27 06:52:40;;;;;;;13.53;6.33;;;;;;;19.27;54.26;97977.56;5031866;28;20458;-71
2023/09/27 06:55:12;;;;;;;15.27;6.67;;;;;;;19.41;54.02;97981.16;5029744;28;20461;-70
2023/09/27 06:57:40;;;;;;;10.13;6.40;;;;;;;19.56;54.11;97983.72;5033240;28;20418;-71
2023/09/27 07:00:24;;;;;;;9.40;6.97;;;;;;;19.68;53.89;97976.88;5044475;28;20430;-72
2023/09/27 07:02:53;;;;;;;10.33;6.00;;;;;;;19.78;53.88;97974.72;5045371;28;20422;-71
2023/09/27 07:05:21;;;;;;;8.33;6.67;;;;;;;19.71;54.08;97976.50;5047761;28;20881;-73
2023/09/27 07:07:47;;;;;;;9.63;8.73;;;;;;;19.73;54.37;97979.78;5033767;28;20451;-73
2023/09/27 07:10:13;;;;;;;10.13;7.30;;;;;;;19.77;53.88;97975.75;5043545;28;20437;-73
2023/09/27 07:12:38;;;;;;;9.40;7.40;;;;;;;19.72;54.01;97972.03;5039039;28;20551;-72
2023/09/27 07:15:08;;;;;;;7.87;6.50;;;;;;;19.77;54.50;97978.41;5035355;28;20191;-73
2023/09/27 07:17:34;;;;;;;9.60;7.30;;;;;;;19.65;54.20;97979.94;5038661;28;20297;-73
2023/09/27 07:19:59;;;;;;;17.50;14.70;;;;;;;19.64;54.87;97978.28;5046730;28;20619;-72
2023/09/27 07:22:25;;;;;;;21.43;7.80;;;;;;;19.70;54.64;97982.03;5050057;28;20194;-71
2023/09/27 07:24:50;;;;;;;8.07;7.00;;;;;;;19.63;54.53;97976.66;5045932;28;20727;-73
2023/09/27 07:27:16;;;;;;;12.67;8.17;;;;;;;19.66;54.71;97984.22;5049745;28;20266;-72
2023/09/27 07:29:41;;;;;;;7.70;6.60;;;;;;;19.70;54.77;97980.16;5049435;28;20187;-73
2023/09/27 07:32:07;;;;;;;12.50;8.07;;;;;;;19.79;55.20;97972.88;5050091;28;20207;-74
2023/09/27 07:34:33;;;;;;;9.67;7.50;;;;;;;19.85;55.03;97973.94;5047331;28;20786;-74
2023/09/27 07:36:58;;;;;;;11.23;8.73;;;;;;;19.98;54.97;97978.56;5047607;28;20442;-73
2023/09/27 07:39:24;;;;;;;9.03;7.57;;;;;;;20.00;54.46;97972.06;5054138;28;20664;-72
2023/09/27 07:41:49;;;;;;;14.63;8.13;;;;;;;20.10;54.19;97967.19;5053437;28;20219;-73
2023/09/27 07:44:17;;;;;;;14.23;7.30;;;;;;;20.23;54.56;97969.09;5057622;28;20197;-71
2023/09/27 07:46:44;;;;;;;10.47;5.93;;;;;;;20.34;53.90;97951.78;5056354;28;20202;-72
2023/09/27 07:49:10;;;;;;;10.33;6.87;;;;;;;20.38;54.49;97953.03;5058756;28;20512;-73
2023/09/27 07:51:35;;;;;;;16.43;9.10;;;;;;;20.63;54.27;97957.84;5051317;28;20524;-71
2023/09/27 07:54:03;;;;;;;10.70;6.93;;;;;;;20.87;53.88;97956.50;5049514;28;20195;-71
2023/09/27 07:56:36;;;;;;;9.60;6.60;;;;;;;20.79;53.22;97959.38;5057310;28;20186;-72
2023/09/27 07:59:03;;;;;;;10.20;6.60;;;;;;;21.13;52.12;97962.13;5045922;28;20497;-72
2023/09/27 08:01:29;;;;;;;9.87;7.10;;;;;;;21.45;51.49;97965.03;5056430;28;20502;-72
2023/09/27 08:04:00;;;;;;;14.20;7.93;;;;;;;21.74;51.63;97957.69;5065682;28;21006;-73
2023/09/27 08:06:26;;;;;;;10.20;7.90;;;;;;;22.09;50.69;97957.44;5049500;28;20194;-72
2023/09/27 08:08:51;;;;;;;9.47;6.30;;;;;;;22.38;49.77;97952.66;5049063;28;20434;-72
2023/09/27 08:11:17;;;;;;;19.03;7.23;;;;;;;22.71;49.29;97949.06;5049383;28;20226;-72
2023/09/27 08:13:43;;;;;;;11.47;6.43;;;;;;;23.03;48.71;97946.44;5048747;28;20187;-73
2023/09/27 08:16:08;;;;;;;11.63;7.63;;;;;;;23.33;47.94;97951.19;5049661;28;20627;-73
2023/09/27 08:18:34;;;;;;;21.90;16.23;;;;;;;23.62;47.51;97947.09;5043802;28;20573;-73
2023/09/27 08:21:00;;;;;;;11.40;6.27;;;;;;;23.96;46.82;97949.47;5049691;28;20198;-72
2023/09/27 08:23:26;;;;;;;15.73;6.80;;;;;;;24.21;46.45;97944.06;5056575;28;20758;-72
2023/09/27 08:25:52;;;;;;;18.77;11.17;;;;;;;24.49;45.93;97945.41;5048744;28;20464;-72
2023/09/27 08:28:20;;;;;;;9.23;5.93;;;;;;;24.75;44.21;97934.59;5048878;28;20269;-72
2023/09/27 08:30:46;;;;;;;13.33;6.40;;;;;;;24.79;44.02;97933.13;5056616;28;20452;-72
2023/09/27 08:33:12;;;;;;;11.67;5.30;;;;;;;25.04;43.67;97929.47;5086814;28;20436;-72
2023/09/27 08:35:37;;;;;;;8.53;4.93;;;;;;;25.26;43.44;97922.53;5048074;28;20926;-73
2023/09/27 08:38:03;;;;;;;11.47;5.67;;;;;;;24.75;44.37;97923.88;5049200;28;20195;-71
2023/09/27 08:40:28;;;;;;;14.73;4.70;;;;;;;25.03;44.04;97917.13;5050141;28;20293;-72
2023/09/27 08:42:56;;;;;;;10.73;5.03;;;;;;;24.80;43.52;97921.34;5050238;28;20186;-73
2023/09/27 08:45:23;;;;;;;7.10;4.80;;;;;;;24.81;44.14;97921.13;5053222;28;20564;-72
2023/09/27 08:47:48;;;;;;;12.47;5.10;;;;;;;25.20;43.67;97923.47;5048146;28;20422;-72
2023/09/27 08:50:14;;;;;;;15.33;5.00;;;;;;;25.48;43.32;97922.00;5050522;28;20432;-72
2023/09/27 08:52:45;;;;;;;8.27;4.33;;;;;;;25.84;42.38;97911.28;5047928;28;20199;-72
2023/09/27 08:55:12;;;;;;;10.20;4.20;;;;;;;25.99;41.92;97900.91;5046540;28;20425;-72
2023/09/27 08:57:46;;;;;;;7.60;4.03;;;;;;;26.09;41.58;97910.22;5060825;28;21012;-71
2023/09/27 09:00:13;;;;;;;10.13;4.50;;;;;;;26.36;41.37;97905.16;5054653;28;20503;-72
2023/09/27 09:02:43;;;;;;;9.17;4.30;;;;;;;26.36;40.56;97903.31;5058461;28;21055;-73
2023/09/27 09:05:11;;;;;;;9.17;4.20;;;;;;;26.20;40.92;97899.50;5047516;28;20520;-71
2023/09/27 09:07:40;;;;;;;6.30;4.53;;;;;;;26.42;40.04;97895.34;5048330;28;20421;-72
2023/09/27 09:10:09;;;;;;;12.70;5.00;;;;;;;26.49;40.60;97891.47;5040619;28;20430;-73
2023/09/27 09:12:38;;;;;;;7.17;3.60;;;;;;;26.75;39.81;97888.47;5049919;28;20461;-73
2023/09/27 09:15:05;;;;;;;6.17;4.17;;;;;;;26.77;39.12;97889.84;5054335;28;20827;-71
2023/09/27 09:17:34;;;;;;;8.17;4.07;;;;;;;26.94;39.58;97883.72;5052450;28;20425;-72
2023/09/27 09:22:45;;;;;;;5.47;3.57;;;;;;;27.05;38.74;97877.44;5047725;28;20445;-70
2023/09/27 09:25:10;;;;;;;4.90;3.63;;;;;;;27.18;38.53;97876.31;5048867;28;20425;-72
2023/09/27 09:27:37;;;;;;;6.73;3.47;;;;;;;27.60;37.82;97880.47;5047949;28;20428;-71
2023/09/27 09:30:06;;;;;;;8.60;4.40;;;;;;;27.64;36.98;97873.53;5049754;28;20270;-73
2023/09/27 09:32:32;;;;;;;6.23;4.03;;;;;;;27.77;37.03;97868.88;5055048;28;20464;-72
2023/09/27 09:34:57;;;;;;;5.43;3.97;;;;;;;27.97;36.85;97869.16;5055907;28;20948;-72
2023/09/27 09:37:29;;;;;;;9.70;4.23;;;;;;;27.98;37.21;97865.38;5047753;28;20289;-72
2023/09/27 09:40:14;;;;;;;11.83;4.03;;;;;;;28.42;36.46;97863.78;5056026;28;20194;-72
2023/09/27 09:42:41;;;;;;;6.53;3.23;;;;;;;28.72;35.77;97859.78;5055212;28;20436;-72
2023/09/27 09:45:10;;;;;;;8.10;3.47;;;;;;;28.67;36.50;97855.13;5047614;28;20465;-72
2023/09/27 09:47:39;;;;;;;9.50;3.50;;;;;;;28.87;35.87;97849.16;5043401;28;20417;-73
2023/09/27 09:50:08;;;;;;;6.00;3.70;;;;;;;29.27;35.53;97842.47;5050277;28;20433;-71
2023/09/27 09:52:39;;;;;;;6.40;3.20;;;;;;;29.60;34.72;97834.34;5047961;28;20450;-73
2023/09/27 09:55:07;;;;;;;5.73;3.17;;;;;;;29.95;34.12;97845.63;5055325;28;20429;-73
2023/09/27 09:57:35;;;;;;;8.83;3.27;;;;;;;29.12;35.37;97845.03;5049481;28;20422;-73
2023/09/27 10:00:13;;;;;;;8.90;3.90;;;;;;;29.04;35.87;97840.13;5049077;28;20441;-71
2023/09/27 10:02:50;;;;;;;9.67;3.17;;;;;;;29.67;35.19;97834.94;5051713;28;20506;-73
2023/09/27 10:05:19;;;;;;;3.50;3.20;;;;;;;30.08;34.56;97834.34;5045576;28;20474;-72
2023/09/27 10:07:46;;;;;;;6.00;3.00;;;;;;;30.29;33.48;97834.41;5050938;28;20842;-72
2023/09/27 10:10:14;;;;;;;5.17;2.80;;;;;;;30.43;32.31;97827.41;5059682;28;20433;-73
2023/09/27 10:12:47;;;;;;;3.47;2.80;;;;;;;30.73;32.72;97828.59;5053133;28;20461;-72
2023/09/27 10:15:14;;;;;;;9.60;2.57;;;;;;;30.94;31.99;97829.41;5055244;28;20439;-71
2023/09/27 10:17:39;;;;;;;5.17;2.60;;;;;;;30.92;31.86;97830.75;5054191;28;20993;-71
2023/09/27 10:20:14;;;;;;;3.90;3.20;;;;;;;30.95;31.44;97822.09;5045586;28;20563;-72
2023/09/27 10:22:42;;;;;;;6.50;3.40;;;;;;;31.14;31.75;97813.44;5051665;28;20190;-72
2023/09/27 10:25:32;;;;;;;4.23;3.10;;;;;;;31.32;31.28;97818.31;5053704;28;20508;-72
2023/09/27 10:28:01;;;;;;;5.87;4.37;;;;;;;31.43;31.39;97819.13;5054601;28;20425;-73
2023/09/27 10:30:27;;;;;;;4.70;4.30;;;;;;;31.78;30.89;97803.06;5059879;28;21041;-72
2023/09/27 10:33:14;;;;;;;3.57;2.50;;;;;;;31.89;30.17;97801.91;5051654;28;20468;-72
2023/09/27 10:35:40;;;;;;;4.37;2.67;;;;;;;31.80;29.68;97806.31;5051509;28;20436;-72
2023/09/27 10:38:09;;;;;;;6.03;2.77;;;;;;;31.93;29.61;97800.28;5058267;28;20433;-72
2023/09/27 10:40:45;;;;;;;3.10;2.80;;;;;;;31.92;29.41;97801.38;5053159;28;20441;-72
2023/09/27 10:43:38;;;;;;;7.23;2.77;;;;;;;32.12;29.39;97795.06;5053752;28;20428;-72
2023/09/27 10:46:04;;;;;;;6.00;2.60;;;;;;;32.34;29.50;97785.72;5051693;28;20452;-72
2023/09/27 10:48:32;;;;;;;5.70;2.30;;;;;;;32.40;29.03;97786.50;5057277;28;20780;-72
2023/09/27 10:50:58;;;;;;;3.53;2.37;;;;;;;32.52;28.59;97783.47;5055355;28;20441;-72
2023/09/27 10:53:24;;;;;;;2.23;2.03;;;;;;;32.59;28.16;97779.34;5056101;28;20428;-72
2023/09/27 10:55:50;;;;;;;3.97;1.90;;;;;;;32.58;28.07;97769.59;5056756;28;20190;-71
2023/09/27 10:58:16;;;;;;;4.87;1.80;;;;;;;32.76;28.10;97767.28;5051227;28;20453;-71
2023/09/27 11:01:09;;;;;;;3.73;1.93;;;;;;;32.80;28.30;97768.34;5049876;28;20215;-72
2023/09/27 11:03:35;;;;;;;2.73;1.87;;;;;;;32.92;27.77;97776.91;5047302;28;21012;-72
2023/09/27 11:06:11;;;;;;;4.27;2.53;;;;;;;32.97;27.67;97776.06;5050172;28;20441;-72
2023/09/27 11:08:36;;;;;;;3.63;3.33;;;;;;;33.12;28.23;97777.84;5050873;28;20195;-72
2023/09/27 11:11:01;;;;;;;2.10;1.90;;;;;;;33.27;28.15;97771.44;5052690;28;20557;-72
2023/09/27 11:13:29;;;;;;;3.40;2.37;;;;;;;33.41;28.25;97773.50;5025600;28;20647;-72
2023/09/27 11:16:06;;;;;;;2.90;2.37;;;;;;;33.63;27.21;97773.00;5051439;28;20257;-72
2023/09/27 11:18:39;;;;;;;5.43;2.17;;;;;;;33.51;26.80;97771.50;5045954;28;20436;-72
2023/09/27 11:21:24;;;;;;;3.33;2.57;;;;;;;33.52;26.55;97766.88;5047152;28;21123;-73
2023/09/27 11:23:57;;;;;;;3.87;1.90;;;;;;;33.50;26.19;97759.00;5047015;28;20418;-72
2023/09/27 11:26:24;;;;;;;2.50;2.30;;;;;;;33.70;25.49;97759.84;5050993;28;20437;-72
2023/09/27 11:28:58;;;;;;;2.33;1.73;;;;;;;33.71;25.53;97749.81;5050372;28;20463;-72
2023/09/27 11:31:26;;;;;;;3.10;1.60;;;;;;;33.80;25.96;97748.84;5042962;28;20485;-72
2023/09/27 11:33:51;;;;;;;2.80;1.80;;;;;;;33.48;25.24;97747.63;5055329;28;20458;-72